Time;durP1;ratioP1;P1;durP2;ratioP2;P2;SDS_P1;SDS_P2;PMS_P1;PMS_P2;Temp;Humidity;BMP_temperature;BMP_pressure;BME280_temperature;BME280_humidity;BME280_pressure;Samples;Min_cycle;Max_cycle;Signal;HPM_P1;HPM_P2
2023/01/25 00:01:55;;;;;;;16.60;12.23;;;2.50;99.90;;;2.33;73.51;102363.72;5037840;28;20264;-72
2023/01/25 00:04:24;;;;;;;17.97;11.30;;;2.50;99.90;;;2.34;73.65;102369.69;5040939;28;20198;-72
2023/01/25 00:06:52;;;;;;;17.83;11.90;;;2.50;99.90;;;2.34;73.48;102368.03;5033243;28;20215;-72
2023/01/25 00:09:23;;;;;;;19.97;11.80;;;2.50;99.90;;;2.33;73.66;102373.03;5036102;28;20209;-73
2023/01/25 00:11:55;;;;;;;16.67;11.50;;;2.50;99.90;;;2.33;73.65;102373.91;5041972;28;20233;-74
2023/01/25 00:14:24;;;;;;;18.53;11.57;;;2.50;99.90;;;2.35;73.49;102372.31;5041226;28;20203;-70
2023/01/25 00:16:52;;;;;;;18.47;12.37;;;2.50;99.90;;;2.34;72.98;102374.78;5037315;28;20228;-71
2023/01/25 00:19:22;;;;;;;17.30;11.40;;;2.50;99.90;;;2.30;73.48;102380.47;5045779;28;20545;-73
2023/01/25 00:21:51;;;;;;;16.30;11.03;;;2.40;99.90;;;2.25;73.67;102375.13;5040360;28;20237;-72
2023/01/25 00:24:21;;;;;;;15.07;10.40;;;2.40;99.90;;;2.27;73.60;102370.13;5038656;28;21017;-72
2023/01/25 00:26:51;;;;;;;15.87;10.73;;;2.40;99.90;;;2.25;73.03;102359.88;5034041;28;20256;-73
2023/01/25 00:29:20;;;;;;;15.63;10.30;;;2.40;99.90;;;2.23;72.46;102348.72;5047923;28;20194;-72
2023/01/25 00:32:08;;;;;;;16.00;10.13;;;2.40;99.90;;;2.19;71.48;102351.84;5046749;28;20209;-73
2023/01/25 00:34:46;;;;;;;18.00;11.93;;;2.40;99.90;;;2.15;71.77;102350.78;5045227;28;20293;-71
2023/01/25 00:37:24;;;;;;;16.93;12.03;;;2.30;99.90;;;2.13;72.13;102351.47;5044205;28;20210;-72
2023/01/25 00:39:53;;;;;;;18.60;12.50;;;2.30;99.90;;;2.16;72.33;102354.22;5042074;28;20259;-72
2023/01/25 00:42:23;;;;;;;17.00;12.30;;;2.30;99.90;;;2.17;71.89;102354.31;5032758;28;20226;-73
2023/01/25 00:44:51;;;;;;;19.83;12.80;;;2.30;99.90;;;2.15;72.16;102347.38;5046899;28;20202;-71
2023/01/25 00:47:20;;;;;;;15.03;11.47;;;2.30;99.90;;;2.12;70.88;102347.19;5046380;28;20237;-72
2023/01/25 00:49:49;;;;;;;18.57;12.80;;;2.20;99.90;;;2.10;71.45;102343.66;5047276;28;20201;-73
2023/01/25 00:52:17;;;;;;;13.87;11.13;;;2.30;99.90;;;2.09;71.57;102337.72;5038008;28;20202;-72
2023/01/25 00:54:46;;;;;;;17.00;11.80;;;2.20;99.90;;;2.09;71.14;102340.25;5048845;28;20206;-73
2023/01/25 00:57:14;;;;;;;18.17;12.80;;;2.20;99.90;;;2.06;71.72;102331.56;5039951;28;20603;-72
2023/01/25 00:59:50;;;;;;;19.63;12.47;;;2.20;99.90;;;2.04;70.93;102328.94;5051418;28;20217;-74
2023/01/25 01:02:20;;;;;;;15.63;11.50;;;2.20;99.90;;;2.05;70.95;102337.44;5042577;28;20221;-73
2023/01/25 01:04:49;;;;;;;15.63;10.10;;;2.10;99.90;;;1.99;70.32;102329.44;5043189;28;20252;-72
2023/01/25 01:07:17;;;;;;;16.47;11.17;;;2.20;99.90;;;1.93;70.40;102330.84;5047269;28;20269;-72
2023/01/25 01:09:46;;;;;;;14.30;10.80;;;2.10;99.90;;;1.86;70.06;102336.34;5034567;28;20210;-73
2023/01/25 01:12:15;;;;;;;17.43;10.60;;;2.00;99.90;;;1.81;70.16;102335.19;5044650;28;20225;-74
2023/01/25 01:14:44;;;;;;;17.57;11.87;;;2.00;99.90;;;1.80;70.43;102333.41;5042881;28;20206;-72
2023/01/25 01:17:13;;;;;;;16.27;11.80;;;2.00;99.90;;;1.79;70.77;102326.56;5044496;28;20215;-71
2023/01/25 01:19:41;;;;;;;14.87;10.50;;;2.00;99.90;;;1.81;70.84;102327.56;5048443;28;20285;-74
2023/01/25 01:22:10;;;;;;;17.80;11.73;;;2.00;99.90;;;1.83;70.90;102325.09;5042800;28;20245;-70
2023/01/25 01:24:39;;;;;;;17.70;12.53;;;2.00;99.90;;;1.84;70.90;102330.28;5043139;28;20210;-73
2023/01/25 01:27:07;;;;;;;18.17;12.97;;;2.00;99.90;;;1.85;71.56;102332.03;5035252;28;20237;-73
2023/01/25 01:29:36;;;;;;;17.40;12.07;;;2.00;99.90;;;1.86;71.23;102333.78;5031481;28;20250;-73
2023/01/25 01:32:06;;;;;;;17.90;13.70;;;2.00;99.90;;;1.87;71.41;102330.44;5044692;28;20704;-71
2023/01/25 01:34:35;;;;;;;15.27;11.10;;;2.00;99.90;;;1.87;71.09;102335.53;5051492;28;20599;-73
2023/01/25 01:37:03;;;;;;;13.77;11.00;;;2.00;99.90;;;1.86;71.13;102331.25;5048045;28;20255;-73
2023/01/25 01:39:32;;;;;;;14.40;10.17;;;2.00;99.90;;;1.87;71.36;102319.41;5050000;28;20202;-74
2023/01/25 01:42:00;;;;;;;14.70;9.93;;;2.00;99.90;;;1.88;70.26;102322.06;5036448;28;20260;-71
2023/01/25 01:44:46;;;;;;;13.77;9.80;;;2.00;99.90;;;1.80;70.89;102308.00;5050657;28;20276;-74
2023/01/25 01:47:22;;;;;;;13.73;10.10;;;2.00;99.90;;;1.81;70.97;102317.41;5039333;28;20202;-72
2023/01/25 01:49:55;;;;;;;12.67;9.43;;;2.00;99.90;;;1.80;70.59;102312.19;5047762;28;20201;-72
2023/01/25 01:52:28;;;;;;;12.93;9.97;;;1.90;99.90;;;1.79;70.70;102311.31;5035581;28;20340;-73
2023/01/25 01:55:02;;;;;;;12.47;8.60;;;1.90;99.90;;;1.78;70.37;102317.22;5048309;28;20248;-73
2023/01/25 01:57:36;;;;;;;11.97;8.90;;;1.90;99.90;;;1.72;69.91;102311.75;5049624;28;20247;-71
2023/01/25 02:00:10;;;;;;;10.53;8.37;;;1.90;99.90;;;1.71;69.15;102311.66;5045584;28;20221;-72
2023/01/25 02:02:41;;;;;;;13.97;9.70;;;1.90;99.90;;;1.70;69.80;102313.31;5038905;28;20229;-73
2023/01/25 02:05:18;;;;;;;12.43;9.70;;;1.90;99.90;;;1.72;69.17;102311.75;5041468;28;20202;-72
2023/01/25 02:07:48;;;;;;;15.13;9.87;;;1.90;99.90;;;1.74;69.70;102311.84;5037907;28;20214;-72
2023/01/25 02:10:18;;;;;;;14.47;9.07;;;1.90;99.90;;;1.73;69.91;102299.91;5046855;28;20205;-72
2023/01/25 02:12:48;;;;;;;11.47;9.00;;;1.90;99.90;;;1.73;69.67;102294.81;5049603;28;20288;-72
2023/01/25 02:15:17;;;;;;;12.13;8.40;;;1.90;99.90;;;1.70;69.47;102298.09;5039996;28;20217;-71
2023/01/25 02:17:49;;;;;;;12.83;8.87;;;1.90;99.90;;;1.68;70.14;102294.56;5044514;28;20264;-74
2023/01/25 02:20:26;;;;;;;12.50;9.27;;;1.80;99.90;;;1.64;70.04;102292.63;5037761;28;20202;-72
2023/01/25 02:23:03;;;;;;;12.03;8.53;;;1.80;99.90;;;1.59;70.12;102291.47;5041126;28;20213;-72
2023/01/25 02:25:33;;;;;;;12.90;9.67;;;1.80;99.90;;;1.60;69.60;102288.13;5043266;28;20209;-71
2023/01/25 02:28:09;;;;;;;12.47;8.90;;;1.80;99.90;;;1.61;69.83;102288.22;5042576;28;20264;-71
2023/01/25 02:30:37;;;;;;;12.33;8.43;;;1.80;99.90;;;1.60;69.46;102285.59;5049103;28;20193;-71
2023/01/25 02:33:06;;;;;;;15.93;8.83;;;1.80;99.90;;;1.57;69.75;102285.41;5048105;28;20690;-72
2023/01/25 02:35:42;;;;;;;14.23;8.73;;;1.70;99.90;;;1.53;69.39;102286.88;5038304;28;20210;-72
2023/01/25 02:38:13;;;;;;;10.73;8.93;;;1.70;99.90;;;1.50;70.24;102278.19;5044598;28;20240;-72
2023/01/25 02:40:48;;;;;;;11.93;8.77;;;1.70;99.90;;;1.47;69.49;102288.16;5049521;28;20720;-72
2023/01/25 02:43:18;;;;;;;13.63;9.03;;;1.60;99.90;;;1.44;70.11;102282.13;5046419;28;20244;-72
2023/01/25 02:45:52;;;;;;;13.20;9.03;;;1.60;99.90;;;1.43;69.87;102282.88;5037758;28;20206;-71
2023/01/25 02:48:20;;;;;;;11.77;8.63;;;1.60;99.90;;;1.45;70.62;102278.78;5042881;28;20543;-72
2023/01/25 02:50:49;;;;;;;11.13;9.17;;;1.70;99.90;;;1.47;69.57;102276.34;5048699;28;20753;-72
2023/01/25 02:53:17;;;;;;;12.27;8.33;;;1.60;99.90;;;1.44;69.52;102281.25;5041936;28;20213;-72
2023/01/25 02:55:47;;;;;;;12.43;8.43;;;1.60;99.90;;;1.39;69.24;102278.41;5030132;28;20217;-73
2023/01/25 02:58:15;;;;;;;11.27;8.33;;;1.60;99.90;;;1.34;69.26;102289.97;5031865;28;20264;-72
2023/01/25 03:00:44;;;;;;;12.73;8.93;;;1.50;99.90;;;1.32;69.92;102277.94;5045602;28;20234;-73
2023/01/25 03:03:13;;;;;;;12.63;9.03;;;1.50;99.90;;;1.30;69.76;102282.06;5038300;28;20237;-72
2023/01/25 03:05:42;;;;;;;9.37;7.77;;;1.50;99.90;;;1.29;69.24;102268.50;5036456;28;20252;-73
2023/01/25 03:08:10;;;;;;;10.90;8.57;;;1.50;99.90;;;1.30;69.42;102260.06;5041807;28;20899;-72
2023/01/25 03:10:39;;;;;;;10.97;8.30;;;1.40;99.90;;;1.28;69.08;102264.16;5047292;28;20962;-72
2023/01/25 03:13:10;;;;;;;11.37;8.17;;;1.40;99.90;;;1.22;69.58;102247.69;5034764;28;20244;-73
2023/01/25 03:15:38;;;;;;;11.87;8.83;;;1.40;99.90;;;1.18;70.17;102247.50;5031880;28;20217;-72
2023/01/25 03:18:06;;;;;;;12.83;9.13;;;1.40;99.90;;;1.14;69.95;102245.56;5048041;28;20214;-74
2023/01/25 03:20:35;;;;;;;10.90;8.57;;;1.30;99.90;;;1.11;70.07;102245.38;5040126;28;20210;-72
2023/01/25 03:23:03;;;;;;;12.23;8.87;;;1.30;99.90;;;1.09;70.34;102240.97;5032537;28;20226;-74
2023/01/25 03:25:32;;;;;;;11.10;8.20;;;1.30;99.90;;;1.08;70.99;102234.16;5041357;28;20214;-71
2023/01/25 03:28:00;;;;;;;10.30;7.80;;;1.30;99.90;;;1.08;70.18;102244.31;5047813;28;20202;-73
2023/01/25 03:30:30;;;;;;;10.07;7.87;;;1.30;99.90;;;1.06;70.31;102243.31;5044106;28;20206;-73
2023/01/25 03:32:59;;;;;;;10.10;7.63;;;1.20;99.90;;;1.02;70.20;102238.84;5041320;28;20662;-73
2023/01/25 03:35:29;;;;;;;8.77;6.83;;;1.20;99.90;;;1.00;70.11;102235.34;5032226;28;20634;-72
2023/01/25 03:37:58;;;;;;;11.07;7.47;;;1.20;99.90;;;1.02;70.40;102228.69;5043766;28;20209;-73
2023/01/25 03:40:26;;;;;;;8.63;6.67;;;1.20;99.90;;;1.01;70.09;102226.94;5037514;28;20206;-72
2023/01/25 03:42:55;;;;;;;8.90;6.37;;;1.20;99.90;;;1.01;69.23;102224.41;5029176;28;20230;-73
2023/01/25 03:45:23;;;;;;;9.20;6.37;;;1.20;99.90;;;0.96;69.47;102229.19;5037143;28;20618;-71
2023/01/25 03:47:53;;;;;;;8.13;6.20;;;1.10;99.90;;;0.93;69.93;102229.00;5034720;28;20259;-73
2023/01/25 03:50:22;;;;;;;9.07;6.90;;;1.10;99.90;;;0.93;70.36;102213.75;5045060;28;20199;-74
2023/01/25 03:52:57;;;;;;;9.37;7.00;;;1.10;99.90;;;0.93;70.46;102223.91;5049121;28;20663;-73
2023/01/25 03:55:26;;;;;;;10.00;7.40;;;1.10;99.90;;;0.93;69.96;102234.06;5040751;28;20612;-72
2023/01/25 03:57:54;;;;;;;9.80;7.10;;;1.10;99.90;;;0.95;70.31;102209.66;5042037;28;20674;-72
2023/01/25 04:00:23;;;;;;;9.07;6.43;;;1.10;99.90;;;0.96;69.86;102209.75;5040918;28;20229;-72
2023/01/25 04:02:53;;;;;;;6.93;5.77;;;1.20;99.90;;;0.96;70.22;102209.75;5043889;28;20300;-73
2023/01/25 04:05:21;;;;;;;7.77;4.83;;;1.10;99.90;;;0.96;69.31;102227.53;5036722;28;20252;-73
2023/01/25 04:07:50;;;;;;;7.73;5.80;;;1.10;99.90;;;0.96;70.12;102213.97;5042563;28;20206;-72
2023/01/25 04:10:18;;;;;;;6.97;5.10;;;1.10;99.90;;;0.93;70.01;102212.09;5042691;28;20206;-71
2023/01/25 04:12:47;;;;;;;7.60;5.37;;;1.10;99.90;;;0.93;69.58;102209.56;5034044;28;20268;-74
2023/01/25 04:15:16;;;;;;;8.47;5.30;;;1.10;99.90;;;0.93;69.76;102211.22;5043965;28;20657;-72
2023/01/25 04:17:44;;;;;;;7.07;5.33;;;1.10;99.90;;;0.89;69.72;102209.28;5051138;28;20210;-73
2023/01/25 04:20:14;;;;;;;7.33;5.30;;;1.00;99.90;;;0.84;69.38;102208.97;5049079;28;20209;-72
2023/01/25 04:22:43;;;;;;;8.20;6.43;;;1.00;99.90;;;0.82;69.44;102204.59;5039658;28;20210;-73
2023/01/25 04:25:11;;;;;;;9.20;6.23;;;1.00;99.90;;;0.82;70.47;102208.03;5052693;28;20202;-71
2023/01/25 04:27:40;;;;;;;9.23;6.83;;;1.00;99.90;;;0.82;70.27;102207.16;5046245;28;20659;-72
2023/01/25 04:30:10;;;;;;;11.00;6.80;;;1.10;99.90;;;0.80;70.57;102207.03;5037839;28;20675;-72
2023/01/25 04:32:39;;;;;;;8.00;6.40;;;1.00;99.90;;;0.79;70.55;102200.22;5033151;28;20269;-72
2023/01/25 04:35:08;;;;;;;8.40;5.90;;;1.00;99.90;;;0.78;69.70;102198.47;5043870;28;20261;-73
2023/01/25 04:37:39;;;;;;;8.40;6.00;;;1.00;99.90;;;0.79;70.25;102197.66;5046931;28;20202;-73
2023/01/25 04:40:10;;;;;;;8.87;5.70;;;0.90;99.90;;;0.76;69.63;102189.88;5038879;28;20199;-72
2023/01/25 04:42:38;;;;;;;12.57;7.17;;;0.90;99.90;;;0.73;69.38;102194.75;5038287;28;20222;-73
2023/01/25 04:45:08;;;;;;;10.73;7.50;;;0.90;99.90;;;0.70;69.62;102197.06;5047947;28;20268;-71
2023/01/25 04:47:37;;;;;;;8.33;6.83;;;0.90;99.90;;;0.64;69.77;102194.19;5041542;28;20210;-73
2023/01/25 04:50:06;;;;;;;10.00;7.57;;;0.80;99.90;;;0.59;70.22;102191.34;5048703;28;20237;-73
2023/01/25 04:52:34;;;;;;;10.40;7.83;;;0.80;99.90;;;0.54;70.36;102196.91;5041500;28;20576;-71
2023/01/25 04:55:05;;;;;;;11.30;7.77;;;0.80;99.90;;;0.51;70.53;102189.97;5048567;28;20205;-73
2023/01/25 04:57:34;;;;;;;10.40;7.93;;;0.70;99.90;;;0.51;70.68;102195.03;5039743;28;20202;-72
2023/01/25 05:00:03;;;;;;;12.83;9.37;;;0.80;99.90;;;0.53;71.04;102197.69;5051339;28;20229;-73
2023/01/25 05:02:31;;;;;;;15.53;11.20;;;0.70;99.90;;;0.54;71.46;102197.78;5050668;28;20259;-73
2023/01/25 05:05:00;;;;;;;16.83;12.57;;;0.80;99.90;;;0.58;71.72;102189.56;5049537;28;20248;-72
2023/01/25 05:07:28;;;;;;;16.43;11.67;;;0.80;99.90;;;0.60;71.23;102194.78;5032141;28;20260;-71
2023/01/25 05:09:57;;;;;;;19.43;12.67;;;0.80;99.90;;;0.60;72.09;102198.19;5044379;28;20210;-73
2023/01/25 05:12:27;;;;;;;19.47;13.17;;;0.80;99.90;;;0.63;71.67;102197.50;5047915;28;20288;-72
2023/01/25 05:14:55;;;;;;;17.17;13.83;;;0.80;99.90;;;0.68;72.04;102196.13;5036448;28;20199;-73
2023/01/25 05:17:23;;;;;;;20.60;14.13;;;0.80;99.90;;;0.68;71.31;102196.13;5042946;28;20333;-72
2023/01/25 05:19:52;;;;;;;20.90;14.13;;;0.80;99.90;;;0.71;71.80;102196.31;5042936;28;20202;-71
2023/01/25 05:22:20;;;;;;;21.23;14.33;;;0.80;99.90;;;0.71;71.29;102187.03;5047542;28;20604;-72
2023/01/25 05:24:49;;;;;;;21.30;14.97;;;0.90;99.90;;;0.72;71.53;102193.88;5040717;28;20282;-74
2023/01/25 05:27:19;;;;;;;22.33;14.80;;;0.90;99.90;;;0.70;71.82;102180.22;5042336;28;20688;-73
2023/01/25 05:29:49;;;;;;;21.60;14.23;;;0.90;99.90;;;0.69;71.47;102180.97;5039045;28;20232;-73
2023/01/25 05:32:20;;;;;;;21.77;15.77;;;0.90;99.90;;;0.69;71.85;102187.72;5048718;28;20202;-72
2023/01/25 05:34:49;;;;;;;32.00;20.97;;;0.90;99.90;;;0.74;71.75;102183.84;5038594;28;20214;-71
2023/01/25 05:37:20;;;;;;;21.63;15.13;;;0.90;99.90;;;0.73;71.48;102182.94;5036770;28;20218;-72
2023/01/25 05:39:49;;;;;;;20.53;15.40;;;0.90;99.90;;;0.75;71.95;102187.25;5043980;28;20198;-72
2023/01/25 05:42:18;;;;;;;23.70;15.83;;;0.90;99.90;;;0.74;72.01;102183.84;5044180;28;20210;-71
2023/01/25 05:44:49;;;;;;;29.07;17.30;;;0.90;99.90;;;0.77;71.66;102181.47;5035201;28;20267;-72
2023/01/25 05:47:18;;;;;;;23.80;16.00;;;0.90;99.90;;;0.76;72.01;102179.72;5048867;28;20237;-70
2023/01/25 05:49:47;;;;;;;24.00;17.33;;;0.90;99.90;;;0.76;71.71;102177.19;5049527;28;20205;-73
2023/01/25 05:52:17;;;;;;;26.37;17.10;;;0.90;99.90;;;0.75;71.40;102180.50;5042519;28;20300;-72
2023/01/25 05:54:45;;;;;;;30.47;17.87;;;0.90;99.90;;;0.78;70.98;102179.81;5047202;28;20615;-73
2023/01/25 05:57:15;;;;;;;29.63;19.10;;;0.90;99.90;;;0.75;71.57;102167.81;5044402;28;20568;-73
2023/01/25 05:59:43;;;;;;;30.40;19.00;;;0.90;99.90;;;0.77;71.00;102161.16;5036983;28;20281;-73
2023/01/25 06:02:13;;;;;;;30.10;19.20;;;0.90;99.90;;;0.75;71.08;102165.28;5043559;28;20210;-71
2023/01/25 06:04:42;;;;;;;33.30;18.87;;;0.80;99.90;;;0.72;71.31;102160.00;5041647;28;20237;-74
2023/01/25 06:07:10;;;;;;;30.17;18.23;;;0.80;99.90;;;0.71;71.50;102170.94;5070911;28;20194;-69
2023/01/25 06:09:39;;;;;;;28.00;17.90;;;0.80;99.90;;;0.64;71.15;102157.00;5062704;28;20194;-69
2023/01/25 06:12:09;;;;;;;28.03;18.53;;;0.80;99.90;;;0.63;71.36;102162.00;5053074;28;20241;-69
2023/01/25 06:14:38;;;;;;;29.97;18.67;;;0.80;99.90;;;0.62;71.42;102155.13;5038159;28;20230;-71
2023/01/25 06:17:06;;;;;;;32.20;19.27;;;0.70;99.90;;;0.61;71.07;102154.25;5043778;28;20206;-71
2023/01/25 06:19:36;;;;;;;28.73;18.57;;;0.80;99.90;;;0.60;71.66;102147.44;5044970;28;20622;-71
2023/01/25 06:22:07;;;;;;;32.53;19.17;;;0.70;99.90;;;0.60;71.79;102154.19;5047220;28;20216;-71
2023/01/25 06:24:36;;;;;;;32.03;19.53;;;0.80;99.90;;;0.61;70.94;102155.94;5045636;28;20226;-71
2023/01/25 06:27:05;;;;;;;32.97;20.70;;;0.70;99.90;;;0.63;71.07;102156.91;5035365;28;20541;-71
2023/01/25 06:29:33;;;;;;;29.27;18.90;;;0.70;99.90;;;0.60;71.12;102160.13;5038868;28;20229;-70
2023/01/25 06:32:01;;;;;;;34.50;20.43;;;0.70;99.90;;;0.58;71.96;102155.72;5040472;28;20215;-73
2023/01/25 06:34:30;;;;;;;33.00;20.40;;;0.70;99.90;;;0.55;71.60;102163.16;5045187;28;20198;-69
2023/01/25 06:37:00;;;;;;;29.83;19.70;;;0.70;99.90;;;0.54;71.90;102163.94;5043564;28;20214;-72
2023/01/25 06:39:29;;;;;;;34.83;20.73;;;0.70;99.90;;;0.53;71.87;102158.00;5047313;28;20202;-72
2023/01/25 06:41:58;;;;;;;30.90;19.30;;;0.70;99.90;;;0.53;71.99;102158.00;5039254;28;20690;-72
2023/01/25 06:44:28;;;;;;;32.10;19.77;;;0.70;99.90;;;0.53;71.44;102158.00;5042173;28;20236;-73
2023/01/25 06:46:57;;;;;;;32.17;20.10;;;0.70;99.90;;;0.54;71.87;102156.31;5050469;28;20206;-70
2023/01/25 06:49:26;;;;;;;30.43;20.07;;;0.70;99.90;;;0.52;71.70;102145.22;5039211;28;20260;-72
2023/01/25 06:51:59;;;;;;;33.47;20.47;;;0.70;99.90;;;0.51;71.79;102156.13;5037693;28;20685;-72
2023/01/25 06:54:29;;;;;;;27.77;18.03;;;0.70;99.90;;;0.47;71.74;102150.84;5044890;28;20202;-72
2023/01/25 06:56:58;;;;;;;31.43;18.73;;;0.60;99.90;;;0.46;71.79;102156.72;5044518;28;20264;-70
2023/01/25 06:59:27;;;;;;;31.20;20.87;;;0.60;99.90;;;0.46;71.65;102151.66;5038978;28;20584;-71
2023/01/25 07:01:56;;;;;;;31.83;19.90;;;0.60;99.90;;;0.45;71.99;102142.28;5046109;28;20229;-73
2023/01/25 07:04:24;;;;;;;30.43;20.03;;;0.60;99.90;;;0.46;71.81;102138.09;5044348;28;20321;-73
2023/01/25 07:06:53;;;;;;;25.40;17.47;;;0.60;99.90;;;0.47;71.93;102139.84;5049507;28;20557;-74
2023/01/25 07:09:23;;;;;;;26.73;17.23;;;0.60;99.90;;;0.42;71.81;102139.56;5046455;28;20206;-73
2023/01/25 07:11:53;;;;;;;26.70;16.33;;;0.60;99.90;;;0.39;71.40;102134.28;5047425;28;20800;-73
2023/01/25 07:14:22;;;;;;;22.27;13.87;;;0.60;99.90;;;0.33;71.41;102126.31;5044176;28;20206;-74
2023/01/25 07:16:53;;;;;;;21.60;14.00;;;0.50;99.90;;;0.27;71.23;102113.25;5042450;28;20304;-74
2023/01/25 07:19:22;;;;;;;20.47;13.90;;;0.40;99.90;;;0.19;71.11;102116.94;5034053;28;20207;-73
2023/01/25 07:21:51;;;;;;;23.20;14.50;;;0.40;99.90;;;0.15;71.81;102126.00;5031660;28;20207;-73
2023/01/25 07:24:25;;;;;;;22.23;14.57;;;0.30;99.90;;;0.10;72.12;102126.47;5039946;28;20202;-72
2023/01/25 07:26:56;;;;;;;25.90;14.27;;;0.30;99.90;;;0.06;72.14;102124.53;5035751;28;20201;-71
2023/01/25 07:29:25;;;;;;;24.13;15.30;;;0.30;99.90;;;0.05;72.47;102122.78;5043939;28;20202;-74
2023/01/25 07:31:54;;;;;;;22.23;14.80;;;0.20;99.90;;;0.01;72.12;102116.66;5048723;28;20224;-73
2023/01/25 07:34:23;;;;;;;28.67;15.93;;;0.20;99.90;;;-0.05;72.11;102117.13;5045815;28;20206;-72
2023/01/25 07:36:54;;;;;;;26.03;16.20;;;0.20;99.90;;;-0.05;72.78;102109.50;5039332;28;20618;-74
2023/01/25 07:39:22;;;;;;;26.23;15.77;;;0.20;99.90;;;-0.03;72.87;102119.75;5043033;28;20213;-73
2023/01/25 07:41:51;;;;;;;25.37;15.57;;;0.20;99.90;;;-0.04;72.71;102116.34;5039129;28;20228;-72
2023/01/25 07:44:21;;;;;;;23.93;13.77;;;0.10;99.90;;;-0.05;72.76;102119.66;5037657;28;20245;-71
2023/01/25 07:46:49;;;;;;;24.90;15.60;;;0.20;99.90;;;-0.06;72.49;102115.38;5035280;28;20617;-72
2023/01/25 07:49:20;;;;;;;27.97;16.70;;;0.10;99.90;;;-0.08;72.23;102114.38;5035045;28;20265;-72
2023/01/25 07:51:49;;;;;;;28.57;16.77;;;0.10;99.90;;;-0.05;72.65;102112.03;5033328;28;21472;-73
2023/01/25 07:54:17;;;;;;;24.00;16.20;;;0.20;99.90;;;0.00;72.79;102112.38;5035932;28;20210;-72
2023/01/25 07:56:46;;;;;;;30.63;16.77;;;0.20;99.90;;;0.01;72.94;102109.03;5040259;28;20210;-71
2023/01/25 07:59:15;;;;;;;25.73;16.40;;;0.20;99.90;;;0.00;72.64;102109.84;5039983;28;20218;-71
2023/01/25 08:01:50;;;;;;;29.53;16.50;;;0.20;99.90;;;0.02;73.18;102115.00;5033994;28;20620;-68
2023/01/25 08:04:18;;;;;;;27.90;18.00;;;0.20;99.90;;;0.02;72.88;102117.53;5037742;28;20214;-71
2023/01/25 08:06:49;;;;;;;29.20;17.27;;;0.20;99.90;;;-0.01;73.13;102102.97;5036414;28;20538;-71
2023/01/25 08:09:19;;;;;;;31.90;17.87;;;0.30;99.90;;;0.02;72.84;102107.38;5049349;28;20206;-72
2023/01/25 08:11:48;;;;;;;27.90;17.13;;;0.30;99.90;;;0.05;73.13;102105.06;5037024;28;20238;-73
2023/01/25 08:14:19;;;;;;;26.93;16.83;;;0.30;99.90;;;0.12;72.77;102109.72;5037847;28;20201;-73
2023/01/25 08:16:49;;;;;;;26.33;17.40;;;0.30;99.90;;;0.17;72.39;102108.34;5047308;28;20202;-73
2023/01/25 08:19:18;;;;;;;25.07;16.83;;;0.40;99.90;;;0.18;71.98;102107.56;5038052;28;20268;-71
2023/01/25 08:21:47;;;;;;;30.50;18.30;;;0.30;99.90;;;0.17;71.96;102106.69;5034938;28;20236;-73
2023/01/25 08:24:16;;;;;;;28.13;17.30;;;0.40;99.90;;;0.21;72.56;102110.31;5036507;28;20206;-72
2023/01/25 08:26:45;;;;;;;24.60;15.83;;;0.40;99.90;;;0.20;71.77;102099.28;5048768;28;20229;-73
2023/01/25 08:29:13;;;;;;;25.03;16.03;;;0.40;99.90;;;0.20;71.77;102101.81;5035975;28;20246;-73
2023/01/25 08:31:44;;;;;;;28.77;17.13;;;0.40;99.90;;;0.19;71.15;102091.59;5044086;28;20237;-72
2023/01/25 08:34:14;;;;;;;21.17;14.67;;;0.40;99.90;;;0.17;70.81;102093.16;5036552;28;20203;-71
2023/01/25 08:36:45;;;;;;;26.23;15.37;;;0.40;99.90;;;0.16;70.97;102086.34;5043786;28;20438;-72
2023/01/25 08:39:13;;;;;;;24.37;15.47;;;0.30;99.90;;;0.17;70.81;102088.06;5048035;28;20720;-74
2023/01/25 08:41:42;;;;;;;26.73;16.10;;;0.30;99.90;;;0.16;70.55;102077.06;5045202;28;20236;-74
2023/01/25 08:44:11;;;;;;;26.70;16.33;;;0.30;99.90;;;0.22;71.20;102085.06;5040976;28;20218;-73
2023/01/25 08:46:40;;;;;;;25.27;16.97;;;0.40;99.90;;;0.25;71.00;102079.28;5031136;28;20234;-73
2023/01/25 08:49:09;;;;;;;29.53;17.43;;;0.40;99.90;;;0.27;70.82;102085.34;5047654;28;20291;-73
2023/01/25 08:51:39;;;;;;;29.47;18.40;;;0.40;99.90;;;0.28;71.26;102084.56;5042579;28;20657;-73
2023/01/25 08:54:12;;;;;;;30.97;18.07;;;0.50;99.90;;;0.30;70.79;102084.69;5049606;28;20198;-72
2023/01/25 08:56:41;;;;;;;30.13;17.93;;;0.50;99.90;;;0.30;70.51;102074.53;5048167;28;20199;-72
2023/01/25 08:59:12;;;;;;;25.90;17.17;;;0.50;99.90;;;0.23;70.82;102071.59;5034249;28;20663;-74
2023/01/25 09:01:41;;;;;;;28.50;17.30;;;0.50;99.90;;;0.25;70.87;102069.16;5043328;28;20281;-73
2023/01/25 09:04:10;;;;;;;29.67;17.77;;;0.50;99.90;;;0.24;71.19;102073.34;5047260;28;20206;-74
2023/01/25 09:06:41;;;;;;;27.63;17.97;;;0.50;99.90;;;0.23;70.72;102066.53;5044675;28;20225;-73
2023/01/25 09:09:09;;;;;;;30.23;18.10;;;0.40;99.90;;;0.23;70.99;102071.59;5041946;28;20386;-74
2023/01/25 09:11:39;;;;;;;27.40;17.00;;;0.50;99.90;;;0.25;70.75;102069.16;5040135;28;20239;-72
2023/01/25 09:14:07;;;;;;;28.93;16.80;;;0.50;99.90;;;0.24;70.44;102067.41;5039417;28;20211;-75
2023/01/25 09:16:37;;;;;;;28.20;17.13;;;0.40;99.90;;;0.18;70.32;102061.94;5048431;28;20256;-72
2023/01/25 09:19:07;;;;;;;27.80;17.53;;;0.40;99.90;;;0.15;70.79;102054.16;5050157;28;20232;-73
2023/01/25 09:21:36;;;;;;;28.23;17.90;;;0.40;99.90;;;0.14;70.90;102054.94;5043226;28;20205;-74
2023/01/25 09:24:07;;;;;;;27.60;17.53;;;0.30;99.90;;;0.12;70.70;102052.31;5041719;28;20278;-74
2023/01/25 09:26:41;;;;;;;34.10;19.40;;;0.40;99.90;;;0.15;71.10;102059.25;5039179;28;20217;-73
2023/01/25 09:29:15;;;;;;;27.97;18.17;;;0.40;99.90;;;0.19;71.25;102046.84;5043335;28;20210;-72
2023/01/25 09:31:46;;;;;;;30.37;18.27;;;0.40;99.90;;;0.23;71.37;102053.00;5043388;28;20206;-71
2023/01/25 09:34:17;;;;;;;29.37;17.80;;;0.40;99.90;;;0.23;70.74;102048.78;5042066;28;20202;-73
2023/01/25 09:36:49;;;;;;;30.47;17.80;;;0.40;99.90;;;0.22;70.13;102041.06;5039235;28;20268;-73
2023/01/25 09:39:21;;;;;;;31.63;17.50;;;0.40;99.90;;;0.21;70.40;102029.19;5038186;28;20256;-71
2023/01/25 09:42:31;;;;;;;26.97;17.97;;;0.40;99.90;;;0.19;70.95;102020.63;5040130;28;20253;-72
2023/01/25 09:45:30;;;;;;;30.27;19.00;;;0.40;99.90;;;0.21;70.86;102017.38;5034295;28;20237;-72
2023/01/25 09:48:20;;;;;;;30.50;18.50;;;0.40;99.90;;;0.25;70.73;102015.91;5024237;28;20207;-72
2023/01/25 09:51:13;;;;;;;30.83;19.03;;;0.50;99.90;;;0.25;70.77;102015.91;5044015;28;20243;-72
2023/01/25 09:53:47;;;;;;;31.50;19.73;;;0.50;99.90;;;0.24;71.01;102015.03;5037514;28;20280;-72
2023/01/25 09:56:24;;;;;;;36.97;19.77;;;0.50;99.90;;;0.24;71.08;102021.78;5041019;28;20206;-72
2023/01/25 09:58:58;;;;;;;32.60;19.73;;;0.50;99.90;;;0.23;70.96;102017.50;5043627;28;20268;-72
2023/01/25 10:01:35;;;;;;;29.73;18.60;;;0.50;99.90;;;0.22;71.05;102015.72;5044059;28;20702;-72
2023/01/25 10:04:14;;;;;;;30.80;19.07;;;0.50;99.90;;;0.23;70.53;102005.69;5044098;28;20233;-72
2023/01/25 10:06:47;;;;;;;31.67;18.10;;;0.40;99.90;;;0.22;70.54;102006.47;5039305;28;20625;-72
2023/01/25 10:09:39;;;;;;;32.37;19.30;;;0.40;99.90;;;0.22;70.77;102005.56;5042546;28;20198;-74
2023/01/25 10:12:19;;;;;;;35.20;22.70;;;0.40;99.90;;;0.25;71.28;102003.25;5043421;28;20244;-74
2023/01/25 10:14:49;;;;;;;32.60;20.13;;;0.50;99.90;;;0.33;71.34;101993.56;5035299;28;20717;-73
2023/01/25 10:17:32;;;;;;;36.27;20.87;;;0.50;99.90;;;0.37;70.62;101991.34;5043845;28;20635;-71
2023/01/25 10:20:18;;;;;;;31.60;19.77;;;0.60;99.90;;;0.40;70.58;101990.63;5036123;28;20236;-72
2023/01/25 10:22:53;;;;;;;33.60;20.07;;;0.60;99.90;;;0.41;70.49;101982.25;5036513;28;20232;-73
2023/01/25 10:25:34;;;;;;;30.03;19.17;;;0.60;99.90;;;0.42;70.46;101989.06;5041608;28;20232;-72
2023/01/25 10:28:28;;;;;;;33.47;20.37;;;0.60;99.90;;;0.46;70.46;101979.19;5034427;28;20218;-72
2023/01/25 10:31:02;;;;;;;32.83;20.00;;;0.70;99.90;;;0.47;70.20;101985.13;5041814;28;20213;-73